sensor_id;sensor_type;location;lat;lon;timestamp;P1;durP1;ratioP1;P2;durP2;ratioP2
56718;SDS011;42597;40.636;0.278;2022-09-17T00:00:08;6.10;;;3.80;;
56718;SDS011;42597;40.636;0.278;2022-09-17T00:02:34;7.65;;;4.20;;
56718;SDS011;42597;40.636;0.278;2022-09-17T00:05:00;5.72;;;3.70;;
56718;SDS011;42597;40.636;0.278;2022-09-17T00:07:25;5.45;;;3.55;;
56718;SDS011;42597;40.636;0.278;2022-09-17T00:09:52;9.55;;;4.05;;
56718;SDS011;42597;40.636;0.278;2022-09-17T00:12:18;9.95;;;3.83;;
56718;SDS011;42597;40.636;0.278;2022-09-17T00:14:43;10.85;;;4.55;;
56718;SDS011;42597;40.636;0.278;2022-09-17T00:17:09;8.13;;;4.10;;
56718;SDS011;42597;40.636;0.278;2022-09-17T00:19:34;6.28;;;2.92;;
56718;SDS011;42597;40.636;0.278;2022-09-17T00:22:00;7.32;;;4.05;;
56718;SDS011;42597;40.636;0.278;2022-09-17T00:24:26;7.00;;;3.92;;
56718;SDS011;42597;40.636;0.278;2022-09-17T00:26:51;7.68;;;4.03;;
56718;SDS011;42597;40.636;0.278;2022-09-17T00:29:17;8.65;;;4.03;;
56718;SDS011;42597;40.636;0.278;2022-09-17T00:31:43;7.45;;;3.85;;
56718;SDS011;42597;40.636;0.278;2022-09-17T00:34:09;9.10;;;3.72;;
56718;SDS011;42597;40.636;0.278;2022-09-17T00:36:36;8.68;;;4.15;;
56718;SDS011;42597;40.636;0.278;2022-09-17T00:39:04;6.20;;;3.70;;
56718;SDS011;42597;40.636;0.278;2022-09-17T00:41:32;7.22;;;3.67;;
56718;SDS011;42597;40.636;0.278;2022-09-17T00:43:59;11.55;;;4.13;;
56718;SDS011;42597;40.636;0.278;2022-09-17T00:46:46;7.47;;;4.15;;
56718;SDS011;42597;40.636;0.278;2022-09-17T00:49:19;8.95;;;4.38;;
56718;SDS011;42597;40.636;0.278;2022-09-17T00:51:56;7.15;;;3.80;;
56718;SDS011;42597;40.636;0.278;2022-09-17T00:54:28;7.20;;;4.53;;
56718;SDS011;42597;40.636;0.278;2022-09-17T00:56:55;5.55;;;2.70;;
56718;SDS011;42597;40.636;0.278;2022-09-17T00:59:21;8.90;;;3.85;;
56718;SDS011;42597;40.636;0.278;2022-09-17T01:01:47;7.95;;;4.07;;
56718;SDS011;42597;40.636;0.278;2022-09-17T01:04:18;6.60;;;4.40;;
56718;SDS011;42597;40.636;0.278;2022-09-17T01:06:48;7.90;;;3.65;;
56718;SDS011;42597;40.636;0.278;2022-09-17T01:14:59;7.63;;;3.72;;
56718;SDS011;42597;40.636;0.278;2022-09-17T01:20:42;5.75;;;2.95;;
56718;SDS011;42597;40.636;0.278;2022-09-17T01:29:17;4.53;;;2.67;;
56718;SDS011;42597;40.636;0.278;2022-09-17T01:32:14;8.70;;;4.78;;
56718;SDS011;42597;40.636;0.278;2022-09-17T01:37:59;6.40;;;3.65;;
56718;SDS011;42597;40.636;0.278;2022-09-17T01:40:51;7.35;;;3.95;;
56718;SDS011;42597;40.636;0.278;2022-09-17T01:43:35;10.85;;;4.43;;
56718;SDS011;42597;40.636;0.278;2022-09-17T01:46:29;6.88;;;3.58;;
56718;SDS011;42597;40.636;0.278;2022-09-17T01:48:59;7.03;;;3.42;;
56718;SDS011;42597;40.636;0.278;2022-09-17T01:51:31;7.25;;;3.75;;
56718;SDS011;42597;40.636;0.278;2022-09-17T01:54:45;5.10;;;2.63;;
56718;SDS011;42597;40.636;0.278;2022-09-17T01:57:16;8.05;;;2.88;;
56718;SDS011;42597;40.636;0.278;2022-09-17T02:00:08;6.65;;;3.25;;
56718;SDS011;42597;40.636;0.278;2022-09-17T02:02:52;7.13;;;3.35;;
56718;SDS011;42597;40.636;0.278;2022-09-17T02:05:33;8.88;;;4.63;;
56718;SDS011;42597;40.636;0.278;2022-09-17T02:08:04;5.80;;;3.60;;
56718;SDS011;42597;40.636;0.278;2022-09-17T02:10:35;3.92;;;2.28;;
56718;SDS011;42597;40.636;0.278;2022-09-17T02:13:25;6.60;;;3.40;;
56718;SDS011;42597;40.636;0.278;2022-09-17T02:16:04;6.18;;;2.92;;
56718;SDS011;42597;40.636;0.278;2022-09-17T02:18:46;5.40;;;2.67;;
56718;SDS011;42597;40.636;0.278;2022-09-17T02:26:37;4.32;;;2.22;;
56718;SDS011;42597;40.636;0.278;2022-09-17T02:29:11;6.25;;;3.33;;
56718;SDS011;42597;40.636;0.278;2022-09-17T02:31:43;6.05;;;2.50;;
56718;SDS011;42597;40.636;0.278;2022-09-17T02:34:09;5.45;;;2.63;;
56718;SDS011;42597;40.636;0.278;2022-09-17T02:36:35;7.28;;;3.67;;
56718;SDS011;42597;40.636;0.278;2022-09-17T02:39:01;10.35;;;2.45;;
56718;SDS011;42597;40.636;0.278;2022-09-17T02:41:33;5.60;;;2.97;;
56718;SDS011;42597;40.636;0.278;2022-09-17T02:44:12;9.88;;;4.57;;
56718;SDS011;42597;40.636;0.278;2022-09-17T02:57:54;6.07;;;2.97;;
56718;SDS011;42597;40.636;0.278;2022-09-17T03:00:30;3.72;;;2.22;;
56718;SDS011;42597;40.636;0.278;2022-09-17T03:02:58;5.95;;;2.63;;
56718;SDS011;42597;40.636;0.278;2022-09-17T03:05:29;9.68;;;2.97;;
56718;SDS011;42597;40.636;0.278;2022-09-17T03:07:55;5.95;;;2.83;;
56718;SDS011;42597;40.636;0.278;2022-09-17T03:10:23;6.90;;;3.72;;
56718;SDS011;42597;40.636;0.278;2022-09-17T03:12:51;8.00;;;2.95;;
56718;SDS011;42597;40.636;0.278;2022-09-17T03:15:18;7.35;;;3.85;;
56718;SDS011;42597;40.636;0.278;2022-09-17T03:17:43;4.82;;;2.65;;
56718;SDS011;42597;40.636;0.278;2022-09-17T03:20:09;7.68;;;3.47;;
56718;SDS011;42597;40.636;0.278;2022-09-17T03:22:34;6.05;;;2.72;;
56718;SDS011;42597;40.636;0.278;2022-09-17T03:25:00;5.68;;;3.10;;
56718;SDS011;42597;40.636;0.278;2022-09-17T03:27:26;4.85;;;2.83;;
56718;SDS011;42597;40.636;0.278;2022-09-17T03:29:51;5.75;;;2.35;;
56718;SDS011;42597;40.636;0.278;2022-09-17T03:32:17;3.13;;;1.60;;
56718;SDS011;42597;40.636;0.278;2022-09-17T03:34:42;5.57;;;3.00;;
56718;SDS011;42597;40.636;0.278;2022-09-17T03:37:08;6.93;;;2.75;;
56718;SDS011;42597;40.636;0.278;2022-09-17T03:39:34;7.07;;;3.53;;
56718;SDS011;42597;40.636;0.278;2022-09-17T03:41:59;6.50;;;3.53;;
56718;SDS011;42597;40.636;0.278;2022-09-17T03:44:25;5.68;;;2.50;;
56718;SDS011;42597;40.636;0.278;2022-09-17T03:46:50;3.78;;;1.98;;
56718;SDS011;42597;40.636;0.278;2022-09-17T03:49:16;5.90;;;3.38;;
56718;SDS011;42597;40.636;0.278;2022-09-17T03:51:41;6.32;;;2.67;;
56718;SDS011;42597;40.636;0.278;2022-09-17T03:54:07;6.03;;;2.88;;
56718;SDS011;42597;40.636;0.278;2022-09-17T03:56:33;3.50;;;1.58;;
56718;SDS011;42597;40.636;0.278;2022-09-17T03:58:59;7.40;;;2.78;;
56718;SDS011;42597;40.636;0.278;2022-09-17T04:01:26;5.95;;;2.10;;
56718;SDS011;42597;40.636;0.278;2022-09-17T04:03:53;5.57;;;2.90;;
56718;SDS011;42597;40.636;0.278;2022-09-17T04:06:19;5.47;;;2.42;;
56718;SDS011;42597;40.636;0.278;2022-09-17T04:08:45;3.70;;;2.05;;
56718;SDS011;42597;40.636;0.278;2022-09-17T04:11:11;8.90;;;3.22;;
56718;SDS011;42597;40.636;0.278;2022-09-17T04:13:37;5.18;;;2.30;;
56718;SDS011;42597;40.636;0.278;2022-09-17T04:16:03;5.97;;;2.75;;
56718;SDS011;42597;40.636;0.278;2022-09-17T04:18:29;4.75;;;2.58;;
56718;SDS011;42597;40.636;0.278;2022-09-17T04:20:55;5.10;;;2.55;;
56718;SDS011;42597;40.636;0.278;2022-09-17T04:23:21;5.40;;;2.55;;
56718;SDS011;42597;40.636;0.278;2022-09-17T04:25:47;8.20;;;2.75;;
56718;SDS011;42597;40.636;0.278;2022-09-17T04:28:13;5.72;;;2.70;;
56718;SDS011;42597;40.636;0.278;2022-09-17T04:30:39;8.55;;;3.17;;
56718;SDS011;42597;40.636;0.278;2022-09-17T04:33:06;3.97;;;2.33;;
56718;SDS011;42597;40.636;0.278;2022-09-17T04:35:33;7.63;;;2.78;;
56718;SDS011;42597;40.636;0.278;2022-09-17T04:37:58;4.68;;;2.45;;
56718;SDS011;42597;40.636;0.278;2022-09-17T04:40:24;6.25;;;2.60;;
56718;SDS011;42597;40.636;0.278;2022-09-17T04:42:52;4.40;;;2.60;;
56718;SDS011;42597;40.636;0.278;2022-09-17T04:45:23;5.57;;;2.63;;
56718;SDS011;42597;40.636;0.278;2022-09-17T04:47:49;4.72;;;1.95;;
56718;SDS011;42597;40.636;0.278;2022-09-17T04:50:17;3.67;;;1.80;;
56718;SDS011;42597;40.636;0.278;2022-09-17T04:52:43;7.43;;;3.08;;
56718;SDS011;42597;40.636;0.278;2022-09-17T04:55:10;3.97;;;2.30;;
56718;SDS011;42597;40.636;0.278;2022-09-17T04:57:36;4.00;;;2.20;;
56718;SDS011;42597;40.636;0.278;2022-09-17T05:00:03;6.57;;;2.67;;
56718;SDS011;42597;40.636;0.278;2022-09-17T05:02:31;5.22;;;2.70;;
56718;SDS011;42597;40.636;0.278;2022-09-17T05:04:56;7.53;;;3.08;;
56718;SDS011;42597;40.636;0.278;2022-09-17T05:07:22;6.18;;;2.28;;
56718;SDS011;42597;40.636;0.278;2022-09-17T05:09:48;4.43;;;2.15;;
56718;SDS011;42597;40.636;0.278;2022-09-17T05:12:13;5.78;;;2.28;;
56718;SDS011;42597;40.636;0.278;2022-09-17T05:14:39;4.38;;;2.53;;
56718;SDS011;42597;40.636;0.278;2022-09-17T05:17:04;6.95;;;2.45;;
56718;SDS011;42597;40.636;0.278;2022-09-17T05:19:30;5.20;;;2.65;;
56718;SDS011;42597;40.636;0.278;2022-09-17T05:21:56;5.13;;;2.63;;
56718;SDS011;42597;40.636;0.278;2022-09-17T05:24:21;6.78;;;2.70;;
56718;SDS011;42597;40.636;0.278;2022-09-17T05:26:47;10.25;;;4.00;;
56718;SDS011;42597;40.636;0.278;2022-09-17T05:29:12;6.18;;;2.60;;
56718;SDS011;42597;40.636;0.278;2022-09-17T05:31:38;6.30;;;2.40;;
56718;SDS011;42597;40.636;0.278;2022-09-17T05:34:03;5.20;;;2.35;;
56718;SDS011;42597;40.636;0.278;2022-09-17T05:36:29;9.75;;;2.67;;
56718;SDS011;42597;40.636;0.278;2022-09-17T05:38:55;5.90;;;2.63;;
56718;SDS011;42597;40.636;0.278;2022-09-17T05:41:20;5.38;;;2.28;;
56718;SDS011;42597;40.636;0.278;2022-09-17T05:43:46;6.00;;;2.40;;
56718;SDS011;42597;40.636;0.278;2022-09-17T05:46:12;5.20;;;2.05;;
56718;SDS011;42597;40.636;0.278;2022-09-17T05:48:37;4.38;;;2.53;;
56718;SDS011;42597;40.636;0.278;2022-09-17T05:51:03;9.38;;;3.05;;
56718;SDS011;42597;40.636;0.278;2022-09-17T05:53:28;6.28;;;2.97;;
56718;SDS011;42597;40.636;0.278;2022-09-17T05:55:55;6.25;;;2.00;;
56718;SDS011;42597;40.636;0.278;2022-09-17T05:58:23;5.78;;;2.58;;
56718;SDS011;42597;40.636;0.278;2022-09-17T06:00:49;3.85;;;1.77;;
56718;SDS011;42597;40.636;0.278;2022-09-17T06:03:16;5.25;;;2.53;;
56718;SDS011;42597;40.636;0.278;2022-09-17T06:05:44;4.57;;;2.05;;
56718;SDS011;42597;40.636;0.278;2022-09-17T06:08:17;4.50;;;2.20;;
56718;SDS011;42597;40.636;0.278;2022-09-17T06:10:43;2.80;;;1.52;;
56718;SDS011;42597;40.636;0.278;2022-09-17T06:13:08;4.15;;;2.47;;
56718;SDS011;42597;40.636;0.278;2022-09-17T06:15:34;3.63;;;2.30;;
56718;SDS011;42597;40.636;0.278;2022-09-17T06:17:59;4.72;;;2.33;;
56718;SDS011;42597;40.636;0.278;2022-09-17T06:20:25;3.95;;;1.73;;
56718;SDS011;42597;40.636;0.278;2022-09-17T06:22:57;2.90;;;1.25;;
56718;SDS011;42597;40.636;0.278;2022-09-17T06:25:23;3.65;;;1.73;;
56718;SDS011;42597;40.636;0.278;2022-09-17T06:27:49;3.72;;;1.80;;
56718;SDS011;42597;40.636;0.278;2022-09-17T06:30:14;3.40;;;1.35;;
56718;SDS011;42597;40.636;0.278;2022-09-17T06:32:40;4.05;;;1.73;;
56718;SDS011;42597;40.636;0.278;2022-09-17T06:35:06;3.35;;;1.67;;
56718;SDS011;42597;40.636;0.278;2022-09-17T06:37:32;2.97;;;1.58;;
56718;SDS011;42597;40.636;0.278;2022-09-17T06:39:58;5.10;;;1.92;;
56718;SDS011;42597;40.636;0.278;2022-09-17T06:42:24;5.25;;;2.17;;
56718;SDS011;42597;40.636;0.278;2022-09-17T06:44:50;7.28;;;1.90;;
56718;SDS011;42597;40.636;0.278;2022-09-17T06:47:16;5.90;;;1.83;;
56718;SDS011;42597;40.636;0.278;2022-09-17T06:49:42;5.60;;;2.30;;
56718;SDS011;42597;40.636;0.278;2022-09-17T06:52:07;4.13;;;2.17;;
56718;SDS011;42597;40.636;0.278;2022-09-17T06:54:33;4.20;;;1.77;;
56718;SDS011;42597;40.636;0.278;2022-09-17T06:56:58;4.00;;;1.85;;
56718;SDS011;42597;40.636;0.278;2022-09-17T06:59:24;3.58;;;2.38;;
56718;SDS011;42597;40.636;0.278;2022-09-17T07:01:50;4.05;;;2.22;;
56718;SDS011;42597;40.636;0.278;2022-09-17T07:04:16;2.90;;;1.42;;
56718;SDS011;42597;40.636;0.278;2022-09-17T07:06:43;2.78;;;1.38;;
56718;SDS011;42597;40.636;0.278;2022-09-17T07:09:09;6.28;;;2.25;;
56718;SDS011;42597;40.636;0.278;2022-09-17T07:11:35;2.97;;;1.75;;
56718;SDS011;42597;40.636;0.278;2022-09-17T07:14:01;6.30;;;1.83;;
56718;SDS011;42597;40.636;0.278;2022-09-17T07:16:28;6.35;;;2.50;;
56718;SDS011;42597;40.636;0.278;2022-09-17T07:18:56;3.47;;;1.40;;
56718;SDS011;42597;40.636;0.278;2022-09-17T07:21:22;4.18;;;1.23;;
56718;SDS011;42597;40.636;0.278;2022-09-17T07:23:47;2.80;;;1.67;;
56718;SDS011;42597;40.636;0.278;2022-09-17T07:26:15;3.63;;;2.00;;
56718;SDS011;42597;40.636;0.278;2022-09-17T07:28:41;1.88;;;1.10;;
56718;SDS011;42597;40.636;0.278;2022-09-17T07:31:08;5.80;;;1.67;;
56718;SDS011;42597;40.636;0.278;2022-09-17T07:33:35;6.75;;;2.03;;
56718;SDS011;42597;40.636;0.278;2022-09-17T07:36:04;6.75;;;1.92;;
56718;SDS011;42597;40.636;0.278;2022-09-17T07:38:31;2.58;;;1.35;;
56718;SDS011;42597;40.636;0.278;2022-09-17T07:41:05;3.28;;;1.55;;
56718;SDS011;42597;40.636;0.278;2022-09-17T07:43:38;3.17;;;1.40;;
56718;SDS011;42597;40.636;0.278;2022-09-17T07:46:04;4.35;;;1.75;;
56718;SDS011;42597;40.636;0.278;2022-09-17T07:48:32;3.78;;;1.70;;
56718;SDS011;42597;40.636;0.278;2022-09-17T07:50:58;7.75;;;1.90;;
56718;SDS011;42597;40.636;0.278;2022-09-17T07:53:24;2.65;;;1.42;;
56718;SDS011;42597;40.636;0.278;2022-09-17T07:55:59;3.75;;;1.75;;
56718;SDS011;42597;40.636;0.278;2022-09-17T07:58:28;3.92;;;2.22;;
56718;SDS011;42597;40.636;0.278;2022-09-17T08:01:06;4.68;;;1.65;;
56718;SDS011;42597;40.636;0.278;2022-09-17T08:03:34;5.73;;;2.07;;
56718;SDS011;42597;40.636;0.278;2022-09-17T08:06:04;3.45;;;1.63;;
56718;SDS011;42597;40.636;0.278;2022-09-17T08:08:34;3.60;;;2.08;;
56718;SDS011;42597;40.636;0.278;2022-09-17T08:11:01;6.85;;;1.85;;
56718;SDS011;42597;40.636;0.278;2022-09-17T08:13:28;2.80;;;1.45;;
56718;SDS011;42597;40.636;0.278;2022-09-17T08:15:58;3.97;;;1.88;;
56718;SDS011;42597;40.636;0.278;2022-09-17T08:18:25;4.88;;;2.08;;
56718;SDS011;42597;40.636;0.278;2022-09-17T08:20:51;3.30;;;1.73;;
56718;SDS011;42597;40.636;0.278;2022-09-17T08:25:50;7.50;;;2.60;;
56718;SDS011;42597;40.636;0.278;2022-09-17T08:28:16;4.18;;;1.90;;
56718;SDS011;42597;40.636;0.278;2022-09-17T08:30:42;5.88;;;1.83;;
56718;SDS011;42597;40.636;0.278;2022-09-17T08:33:08;3.83;;;1.88;;
56718;SDS011;42597;40.636;0.278;2022-09-17T08:35:33;3.88;;;2.08;;
56718;SDS011;42597;40.636;0.278;2022-09-17T08:37:59;5.57;;;1.90;;
56718;SDS011;42597;40.636;0.278;2022-09-17T08:40:24;5.57;;;2.33;;
56718;SDS011;42597;40.636;0.278;2022-09-17T08:42:55;4.32;;;2.03;;
56718;SDS011;42597;40.636;0.278;2022-09-17T08:45:26;5.18;;;2.05;;
56718;SDS011;42597;40.636;0.278;2022-09-17T08:48:02;5.70;;;2.15;;
56718;SDS011;42597;40.636;0.278;2022-09-17T08:50:30;3.60;;;1.83;;
56718;SDS011;42597;40.636;0.278;2022-09-17T09:00:54;5.28;;;2.33;;
56718;SDS011;42597;40.636;0.278;2022-09-17T09:03:33;6.40;;;2.28;;
56718;SDS011;42597;40.636;0.278;2022-09-17T09:06:04;4.35;;;1.70;;
56718;SDS011;42597;40.636;0.278;2022-09-17T09:08:32;5.20;;;1.98;;
56718;SDS011;42597;40.636;0.278;2022-09-17T09:11:03;5.30;;;1.80;;
56718;SDS011;42597;40.636;0.278;2022-09-17T09:13:35;3.30;;;1.60;;
56718;SDS011;42597;40.636;0.278;2022-09-17T09:16:10;3.78;;;1.70;;
56718;SDS011;42597;40.636;0.278;2022-09-17T09:18:40;3.33;;;2.05;;
56718;SDS011;42597;40.636;0.278;2022-09-17T09:29:24;3.63;;;2.30;;
56718;SDS011;42597;40.636;0.278;2022-09-17T09:31:59;3.42;;;1.63;;
56718;SDS011;42597;40.636;0.278;2022-09-17T09:34:41;3.90;;;2.08;;
56718;SDS011;42597;40.636;0.278;2022-09-17T09:37:26;3.28;;;1.88;;
56718;SDS011;42597;40.636;0.278;2022-09-17T09:40:05;3.47;;;1.80;;
56718;SDS011;42597;40.636;0.278;2022-09-17T09:42:43;5.82;;;2.22;;
56718;SDS011;42597;40.636;0.278;2022-09-17T09:45:11;6.32;;;2.13;;
56718;SDS011;42597;40.636;0.278;2022-09-17T09:48:05;4.93;;;2.13;;
56718;SDS011;42597;40.636;0.278;2022-09-17T10:00:50;6.07;;;2.53;;
56718;SDS011;42597;40.636;0.278;2022-09-17T10:03:23;6.68;;;2.42;;
56718;SDS011;42597;40.636;0.278;2022-09-17T10:06:05;3.40;;;1.90;;
56718;SDS011;42597;40.636;0.278;2022-09-17T10:08:33;8.20;;;2.50;;
56718;SDS011;42597;40.636;0.278;2022-09-17T10:11:02;5.28;;;2.45;;
56718;SDS011;42597;40.636;0.278;2022-09-17T10:13:31;6.13;;;2.30;;
56718;SDS011;42597;40.636;0.278;2022-09-17T10:18:45;7.43;;;2.95;;
56718;SDS011;42597;40.636;0.278;2022-09-17T10:21:25;4.28;;;1.98;;
56718;SDS011;42597;40.636;0.278;2022-09-17T10:23:58;4.20;;;1.80;;
56718;SDS011;42597;40.636;0.278;2022-09-17T10:26:32;4.18;;;2.20;;
56718;SDS011;42597;40.636;0.278;2022-09-17T10:29:04;5.22;;;2.17;;
56718;SDS011;42597;40.636;0.278;2022-09-17T10:31:45;5.32;;;2.45;;
56718;SDS011;42597;40.636;0.278;2022-09-17T10:34:19;6.55;;;2.83;;
56718;SDS011;42597;40.636;0.278;2022-09-17T10:36:47;6.50;;;2.25;;
56718;SDS011;42597;40.636;0.278;2022-09-17T10:44:36;4.40;;;2.08;;
56718;SDS011;42597;40.636;0.278;2022-09-17T10:49:41;3.60;;;2.05;;
56718;SDS011;42597;40.636;0.278;2022-09-17T10:52:18;5.65;;;2.15;;
56718;SDS011;42597;40.636;0.278;2022-09-17T10:57:24;3.45;;;1.67;;
56718;SDS011;42597;40.636;0.278;2022-09-17T11:00:06;4.88;;;2.15;;
56718;SDS011;42597;40.636;0.278;2022-09-17T11:08:38;6.10;;;2.35;;
56718;SDS011;42597;40.636;0.278;2022-09-17T11:16:41;7.90;;;2.97;;
56718;SDS011;42597;40.636;0.278;2022-09-17T11:27:20;6.80;;;2.38;;
56718;SDS011;42597;40.636;0.278;2022-09-17T11:32:42;5.63;;;3.10;;
56718;SDS011;42597;40.636;0.278;2022-09-17T11:35:35;6.85;;;3.03;;
56718;SDS011;42597;40.636;0.278;2022-09-17T11:48:29;5.80;;;3.15;;
56718;SDS011;42597;40.636;0.278;2022-09-17T11:51:03;6.22;;;3.03;;
56718;SDS011;42597;40.636;0.278;2022-09-17T11:53:42;4.03;;;2.22;;
56718;SDS011;42597;40.636;0.278;2022-09-17T12:01:17;6.97;;;2.78;;
56718;SDS011;42597;40.636;0.278;2022-09-17T12:07:02;3.80;;;2.03;;
56718;SDS011;42597;40.636;0.278;2022-09-17T12:09:40;10.02;;;6.43;;
56718;SDS011;42597;40.636;0.278;2022-09-17T12:12:13;9.25;;;4.20;;
56718;SDS011;42597;40.636;0.278;2022-09-17T12:17:30;6.25;;;2.47;;
56718;SDS011;42597;40.636;0.278;2022-09-17T12:20:07;8.90;;;2.80;;
56718;SDS011;42597;40.636;0.278;2022-09-17T12:22:43;2.90;;;1.98;;
56718;SDS011;42597;40.636;0.278;2022-09-17T12:25:13;5.07;;;2.35;;
56718;SDS011;42597;40.636;0.278;2022-09-17T12:53:09;4.95;;;2.25;;
56718;SDS011;42597;40.636;0.278;2022-09-17T12:55:45;4.45;;;2.28;;
56718;SDS011;42597;40.636;0.278;2022-09-17T13:01:11;6.05;;;3.42;;
56718;SDS011;42597;40.636;0.278;2022-09-17T13:03:44;5.43;;;2.58;;
56718;SDS011;42597;40.636;0.278;2022-09-17T13:14:27;6.63;;;2.55;;
56718;SDS011;42597;40.636;0.278;2022-09-17T13:17:06;5.88;;;3.78;;
56718;SDS011;42597;40.636;0.278;2022-09-17T13:19:46;5.18;;;2.33;;
56718;SDS011;42597;40.636;0.278;2022-09-17T13:22:25;9.48;;;2.67;;
56718;SDS011;42597;40.636;0.278;2022-09-17T13:25:06;4.35;;;2.40;;
56718;SDS011;42597;40.636;0.278;2022-09-17T13:27:35;4.72;;;2.20;;
56718;SDS011;42597;40.636;0.278;2022-09-17T13:30:09;4.47;;;2.33;;
56718;SDS011;42597;40.636;0.278;2022-09-17T13:45:32;11.70;;;3.58;;
56718;SDS011;42597;40.636;0.278;2022-09-17T13:48:22;5.63;;;2.60;;
56718;SDS011;42597;40.636;0.278;2022-09-17T13:50:52;7.38;;;2.75;;
56718;SDS011;42597;40.636;0.278;2022-09-17T13:53:18;5.57;;;2.70;;
56718;SDS011;42597;40.636;0.278;2022-09-17T13:55:54;7.85;;;3.30;;
56718;SDS011;42597;40.636;0.278;2022-09-17T13:58:26;6.95;;;2.88;;
56718;SDS011;42597;40.636;0.278;2022-09-17T14:03:50;7.90;;;3.78;;
56718;SDS011;42597;40.636;0.278;2022-09-17T14:13:52;8.52;;;3.53;;
56718;SDS011;42597;40.636;0.278;2022-09-17T14:27:05;7.38;;;3.65;;
56718;SDS011;42597;40.636;0.278;2022-09-17T14:30:06;5.30;;;2.55;;
56718;SDS011;42597;40.636;0.278;2022-09-17T14:38:20;9.73;;;3.63;;
56718;SDS011;42597;40.636;0.278;2022-09-17T14:47:10;8.48;;;3.92;;
56718;SDS011;42597;40.636;0.278;2022-09-17T14:49:29;6.07;;;3.38;;
56718;SDS011;42597;40.636;0.278;2022-09-17T14:52:01;7.97;;;3.75;;
56718;SDS011;42597;40.636;0.278;2022-09-17T14:54:43;7.50;;;3.20;;
56718;SDS011;42597;40.636;0.278;2022-09-17T15:04:54;4.95;;;1.90;;
56718;SDS011;42597;40.636;0.278;2022-09-17T15:07:21;5.95;;;2.60;;
56718;SDS011;42597;40.636;0.278;2022-09-17T15:09:47;7.97;;;3.30;;
56718;SDS011;42597;40.636;0.278;2022-09-17T15:12:15;9.05;;;3.90;;
56718;SDS011;42597;40.636;0.278;2022-09-17T15:14:43;8.60;;;3.72;;
56718;SDS011;42597;40.636;0.278;2022-09-17T15:17:12;14.63;;;3.92;;
56718;SDS011;42597;40.636;0.278;2022-09-17T15:19:41;7.93;;;4.00;;
56718;SDS011;42597;40.636;0.278;2022-09-17T15:22:14;7.07;;;3.63;;
56718;SDS011;42597;40.636;0.278;2022-09-17T15:25:14;6.32;;;2.85;;
56718;SDS011;42597;40.636;0.278;2022-09-17T15:27:48;8.65;;;3.83;;
56718;SDS011;42597;40.636;0.278;2022-09-17T15:30:17;9.43;;;4.15;;
56718;SDS011;42597;40.636;0.278;2022-09-17T15:37:45;8.55;;;3.70;;
56718;SDS011;42597;40.636;0.278;2022-09-17T15:40:31;6.80;;;3.88;;
56718;SDS011;42597;40.636;0.278;2022-09-17T15:45:51;11.63;;;5.13;;
56718;SDS011;42597;40.636;0.278;2022-09-17T15:50:56;8.35;;;4.50;;
56718;SDS011;42597;40.636;0.278;2022-09-17T15:53:27;7.80;;;4.00;;
56718;SDS011;42597;40.636;0.278;2022-09-17T15:56:01;9.40;;;4.10;;
56718;SDS011;42597;40.636;0.278;2022-09-17T15:59:01;16.52;;;4.65;;
56718;SDS011;42597;40.636;0.278;2022-09-17T16:11:21;14.32;;;5.30;;
56718;SDS011;42597;40.636;0.278;2022-09-17T16:13:52;10.38;;;4.70;;
56718;SDS011;42597;40.636;0.278;2022-09-17T16:16:20;11.85;;;4.45;;
56718;SDS011;42597;40.636;0.278;2022-09-17T16:21:17;11.57;;;3.85;;
56718;SDS011;42597;40.636;0.278;2022-09-17T16:23:44;9.00;;;4.05;;
56718;SDS011;42597;40.636;0.278;2022-09-17T16:26:20;12.27;;;4.45;;
56718;SDS011;42597;40.636;0.278;2022-09-17T16:28:48;15.40;;;4.50;;
56718;SDS011;42597;40.636;0.278;2022-09-17T16:31:18;8.45;;;4.97;;
56718;SDS011;42597;40.636;0.278;2022-09-17T16:33:44;13.38;;;4.97;;
56718;SDS011;42597;40.636;0.278;2022-09-17T16:36:10;12.90;;;4.72;;
56718;SDS011;42597;40.636;0.278;2022-09-17T16:38:35;19.58;;;6.20;;
56718;SDS011;42597;40.636;0.278;2022-09-17T16:41:05;14.63;;;5.40;;
56718;SDS011;42597;40.636;0.278;2022-09-17T16:43:31;17.33;;;4.55;;
56718;SDS011;42597;40.636;0.278;2022-09-17T16:48:31;9.70;;;4.00;;
56718;SDS011;42597;40.636;0.278;2022-09-17T16:50:58;14.70;;;5.18;;
56718;SDS011;42597;40.636;0.278;2022-09-17T16:53:25;12.83;;;4.73;;
56718;SDS011;42597;40.636;0.278;2022-09-17T16:55:51;16.38;;;4.60;;
56718;SDS011;42597;40.636;0.278;2022-09-17T16:58:17;11.57;;;5.80;;
56718;SDS011;42597;40.636;0.278;2022-09-17T17:00:43;11.32;;;4.90;;
56718;SDS011;42597;40.636;0.278;2022-09-17T17:03:12;18.30;;;7.30;;
56718;SDS011;42597;40.636;0.278;2022-09-17T17:05:39;13.57;;;5.18;;
56718;SDS011;42597;40.636;0.278;2022-09-17T17:08:05;12.77;;;5.70;;
56718;SDS011;42597;40.636;0.278;2022-09-17T17:10:32;15.52;;;5.78;;
56718;SDS011;42597;40.636;0.278;2022-09-17T17:12:57;12.48;;;5.47;;
56718;SDS011;42597;40.636;0.278;2022-09-17T17:15:23;11.93;;;4.65;;
56718;SDS011;42597;40.636;0.278;2022-09-17T17:17:48;11.23;;;3.88;;
56718;SDS011;42597;40.636;0.278;2022-09-17T17:20:14;9.65;;;5.85;;
56718;SDS011;42597;40.636;0.278;2022-09-17T17:22:41;16.45;;;6.28;;
56718;SDS011;42597;40.636;0.278;2022-09-17T17:25:07;13.88;;;4.90;;
56718;SDS011;42597;40.636;0.278;2022-09-17T17:27:34;16.13;;;6.13;;
56718;SDS011;42597;40.636;0.278;2022-09-17T17:30:02;13.88;;;6.05;;
56718;SDS011;42597;40.636;0.278;2022-09-17T17:32:30;16.10;;;5.38;;
56718;SDS011;42597;40.636;0.278;2022-09-17T17:34:59;18.15;;;5.95;;
56718;SDS011;42597;40.636;0.278;2022-09-17T17:37:26;15.75;;;4.97;;
56718;SDS011;42597;40.636;0.278;2022-09-17T17:39:51;11.63;;;5.45;;
56718;SDS011;42597;40.636;0.278;2022-09-17T17:42:18;14.02;;;5.65;;
56718;SDS011;42597;40.636;0.278;2022-09-17T17:44:44;15.18;;;5.88;;
56718;SDS011;42597;40.636;0.278;2022-09-17T17:47:09;12.25;;;4.50;;
56718;SDS011;42597;40.636;0.278;2022-09-17T17:49:35;14.07;;;5.60;;
56718;SDS011;42597;40.636;0.278;2022-09-17T17:52:01;17.27;;;6.22;;
56718;SDS011;42597;40.636;0.278;2022-09-17T17:54:26;15.30;;;6.05;;
56718;SDS011;42597;40.636;0.278;2022-09-17T17:56:53;9.70;;;4.93;;
56718;SDS011;42597;40.636;0.278;2022-09-17T17:59:19;11.45;;;5.72;;
56718;SDS011;42597;40.636;0.278;2022-09-17T18:01:45;17.08;;;5.53;;
56718;SDS011;42597;40.636;0.278;2022-09-17T18:04:10;10.93;;;4.90;;
56718;SDS011;42597;40.636;0.278;2022-09-17T18:06:36;11.43;;;5.55;;
56718;SDS011;42597;40.636;0.278;2022-09-17T18:09:10;13.35;;;5.10;;
56718;SDS011;42597;40.636;0.278;2022-09-17T18:11:35;15.50;;;5.57;;
56718;SDS011;42597;40.636;0.278;2022-09-17T18:14:01;12.23;;;4.93;;
56718;SDS011;42597;40.636;0.278;2022-09-17T18:16:27;18.75;;;6.15;;
56718;SDS011;42597;40.636;0.278;2022-09-17T18:18:54;12.20;;;4.40;;
56718;SDS011;42597;40.636;0.278;2022-09-17T18:21:22;16.52;;;5.13;;
56718;SDS011;42597;40.636;0.278;2022-09-17T18:23:48;16.10;;;6.57;;
56718;SDS011;42597;40.636;0.278;2022-09-17T18:26:15;18.95;;;6.25;;
56718;SDS011;42597;40.636;0.278;2022-09-17T18:28:46;12.35;;;5.15;;
56718;SDS011;42597;40.636;0.278;2022-09-17T18:31:16;10.52;;;5.35;;
56718;SDS011;42597;40.636;0.278;2022-09-17T18:33:42;11.75;;;5.53;;
56718;SDS011;42597;40.636;0.278;2022-09-17T18:36:08;16.02;;;6.70;;
56718;SDS011;42597;40.636;0.278;2022-09-17T18:38:34;12.82;;;5.55;;
56718;SDS011;42597;40.636;0.278;2022-09-17T18:43:34;15.65;;;5.97;;
56718;SDS011;42597;40.636;0.278;2022-09-17T18:46:00;13.90;;;5.35;;
56718;SDS011;42597;40.636;0.278;2022-09-17T18:48:27;11.40;;;5.35;;
56718;SDS011;42597;40.636;0.278;2022-09-17T18:50:57;8.10;;;4.47;;
56718;SDS011;42597;40.636;0.278;2022-09-17T18:53:27;17.52;;;6.20;;
56718;SDS011;42597;40.636;0.278;2022-09-17T18:55:55;16.55;;;4.43;;
56718;SDS011;42597;40.636;0.278;2022-09-17T18:58:24;12.88;;;4.90;;